Sussex, Wyoming
Current Conditions -  °F | °C
As of 10:53 AM on Thursday 30 Oct 2014 (Local Time) from KBYG Reporting Station
Clear Clear  
Wind Chill: 51°   Ceiling: Unl
Heat Index: 51°   Visibility: 10mi
Dew Point: 26°   Wind: 6mph
Humidity: 38%   Direction: 160°SSE
Pressure: 30.35"   Gusts: NA
Location:  43.8063°N, 106.549°W
Report Text: KBYG 301653Z AUTO 16005KT 10SM CLR 11/M03 A3035 RMK AO2 SLP266 T01061033 $
Loading
Personal Weather Stations






























Interactive Weather Map
Tropical Storm Tracking
New forecast layout! Learn more

10-Day Weather Forecast

Advertisements
Track Severe Weather on mobile